Time;durP1;ratioP1;P1;durP2;ratioP2;P2;SDS_P1;SDS_P2;PMS_P1;PMS_P2;Temp;Humidity;BMP_temperature;BMP_pressure;BME280_temperature;BME280_humidity;BME280_pressure;Samples;Min_cycle;Max_cycle;Signal;HPM_P1;HPM_P2
2021/05/27 00:00:50;;;;;;;;;;;20.50;59.40;;;;;;5044104;28;19935;-68
2021/05/27 00:03:16;;;;;;;;;;;20.50;59.30;;;;;;5045944;28;19951;-68
2021/05/27 00:05:42;;;;;;;;;;;20.50;59.70;;;;;;5046457;28;20354;-69
2021/05/27 00:08:09;;;;;;;;;;;20.50;59.10;;;;;;5042458;28;19928;-68
2021/05/27 00:10:36;;;;;;;;;;;20.50;58.90;;;;;;5040515;28;19986;-68
2021/05/27 00:13:02;;;;;;;;;;;20.60;58.80;;;;;;5045506;28;19929;-67
2021/05/27 00:15:29;;;;;;;;;;;20.60;58.80;;;;;;5048857;28;19928;-67
2021/05/27 00:17:55;;;;;;;;;;;20.60;58.60;;;;;;5044996;28;19935;-69
2021/05/27 00:20:21;;;;;;;;;;;20.60;58.60;;;;;;5032364;28;19934;-69
2021/05/27 00:22:47;;;;;;;;;;;20.70;58.70;;;;;;5044272;28;19929;-69
2021/05/27 00:25:13;;;;;;;;;;;20.70;58.70;;;;;;5027629;28;20564;-67
2021/05/27 00:27:40;;;;;;;;;;;20.70;58.70;;;;;;5038973;28;19935;-69
2021/05/27 00:30:07;;;;;;;;;;;20.60;58.70;;;;;;5046556;28;19935;-68
2021/05/27 00:32:33;;;;;;;;;;;20.60;58.60;;;;;;5047249;28;21208;-69
2021/05/27 00:34:59;;;;;;;;;;;20.60;58.80;;;;;;5043946;28;19935;-71
2021/05/27 00:37:25;;;;;;;;;;;20.60;58.80;;;;;;5047777;28;19929;-68
2021/05/27 00:39:51;;;;;;;;;;;20.60;58.80;;;;;;5044910;28;19932;-68
2021/05/27 00:42:17;;;;;;;;;;;20.60;58.80;;;;;;5044895;28;19983;-68
2021/05/27 00:44:44;;;;;;;;;;;20.50;58.80;;;;;;5023768;28;20278;-68
2021/05/27 00:47:10;;;;;;;;;;;20.50;58.80;;;;;;5043913;28;21453;-68
2021/05/27 00:49:36;;;;;;;;;;;20.50;58.90;;;;;;5044155;28;19932;-68
2021/05/27 00:52:02;;;;;;;;;;;20.50;59.00;;;;;;5045246;28;19982;-68
2021/05/27 00:54:28;;;;;;;;;;;20.50;58.70;;;;;;5038448;28;19936;-68
2021/05/27 00:56:54;;;;;;;;;;;20.50;58.60;;;;;;5043952;28;20470;-67
2021/05/27 00:59:20;;;;;;;;;;;20.60;58.60;;;;;;5041828;28;19932;-67
2021/05/27 01:01:49;;;;;;;;;;;20.60;58.70;;;;;;5044994;28;20489;-69
2021/05/27 01:04:15;;;;;;;;;;;20.60;58.70;;;;;;5032393;28;19960;-68
2021/05/27 01:06:41;;;;;;;;;;;20.60;58.70;;;;;;5043729;28;20020;-68
2021/05/27 01:09:07;;;;;;;;;;;20.50;58.60;;;;;;5042001;28;19929;-68
2021/05/27 01:11:33;;;;;;;;;;;20.50;58.60;;;;;;5045373;28;20328;-68
2021/05/27 01:14:10;;;;;;;;;;;20.50;58.40;;;;;;5049701;28;19961;-68
2021/05/27 01:16:35;;;;;;;;;;;20.50;58.50;;;;;;5047512;28;19936;-68
2021/05/27 01:19:02;;;;;;;;;;;20.50;58.50;;;;;;5050619;28;19920;-69
2021/05/27 01:21:28;;;;;;;;;;;20.50;58.50;;;;;;5010303;28;19928;-68
2021/05/27 01:23:55;;;;;;;;;;;20.50;58.30;;;;;;5048003;28;19929;-68
2021/05/27 01:26:21;;;;;;;;;;;20.50;58.50;;;;;;5046952;28;19981;-68
2021/05/27 01:28:47;;;;;;;;;;;20.50;58.80;;;;;;5047417;28;20393;-68
2021/05/27 01:31:13;;;;;;;;;;;20.50;58.60;;;;;;5049590;28;19928;-68
2021/05/27 01:33:39;;;;;;;;;;;20.50;58.40;;;;;;5049157;28;19943;-67
2021/05/27 01:36:05;;;;;;;;;;;20.50;58.30;;;;;;5044434;28;19943;-68
2021/05/27 01:38:32;;;;;;;;;;;20.50;58.20;;;;;;5050357;28;20385;-68
2021/05/27 01:40:59;;;;;;;;;;;20.50;58.30;;;;;;5044060;28;19955;-67
2021/05/27 01:43:26;;;;;;;;;;;20.50;58.30;;;;;;5044804;28;19929;-68
2021/05/27 01:45:52;;;;;;;;;;;20.50;58.30;;;;;;5052507;28;19940;-69
2021/05/27 01:48:18;;;;;;;;;;;20.50;58.20;;;;;;5022864;28;19936;-68
2021/05/27 01:50:44;;;;;;;;;;;20.50;58.40;;;;;;5046143;28;19986;-69
2021/05/27 01:53:10;;;;;;;;;;;20.50;58.50;;;;;;5049025;28;19951;-69
2021/05/27 01:55:39;;;;;;;;;;;20.50;58.30;;;;;;5048382;28;19924;-68
2021/05/27 01:58:06;;;;;;;;;;;20.50;58.10;;;;;;5045790;28;20389;-69
2021/05/27 02:00:32;;;;;;;;;;;20.50;58.00;;;;;;5048062;28;20024;-68
2021/05/27 02:02:58;;;;;;;;;;;20.50;58.00;;;;;;5051446;28;19928;-69
2021/05/27 02:05:24;;;;;;;;;;;20.50;57.90;;;;;;5046437;28;19929;-69
2021/05/27 02:07:50;;;;;;;;;;;20.60;58.10;;;;;;5035109;28;19933;-69
2021/05/27 02:10:16;;;;;;;;;;;20.50;58.00;;;;;;5048681;28;19928;-69
2021/05/27 02:12:42;;;;;;;;;;;20.50;57.80;;;;;;5048446;28;19928;-69
2021/05/27 02:15:10;;;;;;;;;;;20.50;57.90;;;;;;5014395;28;20420;-69
2021/05/27 02:17:36;;;;;;;;;;;20.50;57.90;;;;;;5017603;28;20315;-68
2021/05/27 02:20:03;;;;;;;;;;;20.50;58.00;;;;;;5046772;28;20428;-68
2021/05/27 02:22:29;;;;;;;;;;;20.50;58.00;;;;;;5047989;28;19929;-68
2021/05/27 02:24:55;;;;;;;;;;;20.50;57.90;;;;;;5048961;28;19929;-68
2021/05/27 02:27:21;;;;;;;;;;;20.50;57.80;;;;;;5046940;28;20012;-69
2021/05/27 02:29:47;;;;;;;;;;;20.50;58.00;;;;;;5047925;28;19935;-68
2021/05/27 02:32:14;;;;;;;;;;;20.50;58.00;;;;;;5048903;28;19928;-68
2021/05/27 02:34:40;;;;;;;;;;;20.50;57.80;;;;;;5049237;28;19932;-68
2021/05/27 02:37:06;;;;;;;;;;;20.50;57.70;;;;;;5044277;28;19983;-69
2021/05/27 02:39:32;;;;;;;;;;;20.50;57.70;;;;;;5049603;28;19959;-68
2021/05/27 02:41:58;;;;;;;;;;;20.50;57.60;;;;;;5009171;28;20434;-68
2021/05/27 02:44:24;;;;;;;;;;;20.50;57.60;;;;;;5045938;28;20462;-68
2021/05/27 02:46:50;;;;;;;;;;;20.50;57.70;;;;;;5049353;28;20317;-68
2021/05/27 02:49:17;;;;;;;;;;;20.50;57.60;;;;;;5049568;28;19929;-68
2021/05/27 02:51:43;;;;;;;;;;;20.50;57.60;;;;;;5044073;28;20474;-68
2021/05/27 02:54:09;;;;;;;;;;;20.50;57.60;;;;;;5047905;28;20292;-67
2021/05/27 02:56:35;;;;;;;;;;;20.50;57.60;;;;;;5041081;28;19929;-66
2021/05/27 02:59:01;;;;;;;;;;;20.40;57.60;;;;;;5045457;28;20329;-67
2021/05/27 03:01:27;;;;;;;;;;;20.50;57.60;;;;;;5047363;28;19928;-67
2021/05/27 03:03:53;;;;;;;;;;;20.40;57.50;;;;;;5036711;28;19932;-67
2021/05/27 03:06:20;;;;;;;;;;;20.40;57.50;;;;;;5046778;28;19933;-68
2021/05/27 03:08:46;;;;;;;;;;;20.40;57.60;;;;;;5048359;28;20411;-67
2021/05/27 03:11:12;;;;;;;;;;;20.40;57.40;;;;;;5042822;28;19928;-67
2021/05/27 03:13:38;;;;;;;;;;;20.50;57.40;;;;;;5042495;28;19934;-67
2021/05/27 03:16:04;;;;;;;;;;;20.50;57.10;;;;;;5046596;28;19983;-67
2021/05/27 03:18:30;;;;;;;;;;;20.50;57.10;;;;;;5048989;28;19929;-67
2021/05/27 03:20:57;;;;;;;;;;;20.60;57.80;;;;;;5045226;28;20448;-67
2021/05/27 03:23:23;;;;;;;;;;;20.60;56.90;;;;;;5048875;28;20309;-66
2021/05/27 03:25:49;;;;;;;;;;;20.70;56.70;;;;;;5048564;28;19929;-67
2021/05/27 03:28:15;;;;;;;;;;;20.70;56.60;;;;;;5047260;28;20381;-67
2021/05/27 03:30:41;;;;;;;;;;;20.70;56.40;;;;;;5044732;28;19928;-67
2021/05/27 03:33:07;;;;;;;;;;;20.80;56.00;;;;;;5047980;28;19932;-66
2021/05/27 03:35:33;;;;;;;;;;;20.70;55.70;;;;;;5047407;28;19928;-67
2021/05/27 03:37:59;;;;;;;;;;;20.80;55.80;;;;;;5046660;28;19929;-65
2021/05/27 03:40:26;;;;;;;;;;;20.80;55.80;;;;;;5046224;28;19936;-67
2021/05/27 03:42:53;;;;;;;;;;;20.80;55.90;;;;;;5047285;28;20309;-67
2021/05/27 03:45:20;;;;;;;;;;;20.70;55.70;;;;;;5047512;28;19944;-67
2021/05/27 03:47:46;;;;;;;;;;;20.70;55.70;;;;;;5048260;28;19932;-67
2021/05/27 03:50:12;;;;;;;;;;;20.70;55.70;;;;;;5046366;28;19929;-67
2021/05/27 03:52:38;;;;;;;;;;;20.70;55.70;;;;;;5044179;28;19936;-67
2021/05/27 03:55:05;;;;;;;;;;;20.70;55.70;;;;;;5048160;28;19932;-67
2021/05/27 03:57:32;;;;;;;;;;;20.70;55.80;;;;;;5047323;28;19943;-68
2021/05/27 04:02:44;;;;;;;;;;;20.70;56.10;;;;;;5043871;28;21003;-67
2021/05/27 04:07:55;;;;;;;;;;;20.70;56.30;;;;;;5043956;28;20012;-67
2021/05/27 04:10:21;;;;;;;;;;;20.70;56.20;;;;;;5042785;28;19929;-69
2021/05/27 04:12:48;;;;;;;;;;;20.70;56.10;;;;;;5042412;28;19929;-68
2021/05/27 04:15:21;;;;;;;;;;;20.70;56.20;;;;;;5036895;28;19977;-66
2021/05/27 04:17:48;;;;;;;;;;;20.70;56.20;;;;;;5030383;28;20372;-68
2021/05/27 04:20:14;;;;;;;;;;;20.70;55.80;;;;;;5042622;28;19928;-66
2021/05/27 04:22:40;;;;;;;;;;;20.70;55.70;;;;;;5046086;28;20495;-68
2021/05/27 04:25:06;;;;;;;;;;;20.70;55.70;;;;;;5041691;28;19935;-67
2021/05/27 04:27:32;;;;;;;;;;;20.70;55.70;;;;;;5043500;28;20436;-68
2021/05/27 04:30:12;;;;;;;;;;;20.80;55.80;;;;;;5043411;28;20559;-67
2021/05/27 04:35:34;;;;;;;;;;;20.80;55.80;;;;;;4967790;28;21394;-67
2021/05/27 04:38:01;;;;;;;;;;;20.80;55.80;;;;;;5003738;28;19933;-67
2021/05/27 04:40:27;;;;;;;;;;;20.80;55.80;;;;;;5040087;28;19929;-68
2021/05/27 04:42:53;;;;;;;;;;;20.80;55.80;;;;;;5046319;28;20408;-67
2021/05/27 04:45:20;;;;;;;;;;;20.80;55.80;;;;;;5045873;28;19932;-68
2021/05/27 04:47:46;;;;;;;;;;;20.80;55.80;;;;;;5038817;28;19929;-68
2021/05/27 04:50:12;;;;;;;;;;;20.80;55.80;;;;;;5046735;28;19940;-67
2021/05/27 04:52:38;;;;;;;;;;;20.80;55.80;;;;;;5046511;28;19929;-68
2021/05/27 04:55:05;;;;;;;;;;;20.70;55.70;;;;;;5049511;28;19929;-67
2021/05/27 04:57:31;;;;;;;;;;;20.70;55.70;;;;;;5052470;28;19986;-68
2021/05/27 04:59:57;;;;;;;;;;;20.70;55.70;;;;;;5048921;28;19935;-67
2021/05/27 05:02:24;;;;;;;;;;;20.70;55.70;;;;;;5049854;28;19928;-66
2021/05/27 05:04:50;;;;;;;;;;;20.70;55.70;;;;;;5047643;28;19928;-67
2021/05/27 05:07:17;;;;;;;;;;;20.80;55.80;;;;;;5044855;28;19928;-67
2021/05/27 05:09:43;;;;;;;;;;;20.70;56.40;;;;;;5050784;28;19936;-67
2021/05/27 05:12:09;;;;;;;;;;;20.70;74.10;;;;;;5049721;28;19929;-67
2021/05/27 05:14:35;;;;;;;;;;;20.80;88.30;;;;;;5050804;28;19936;-67
2021/05/27 05:17:01;;;;;;;;;;;21.00;94.60;;;;;;5050891;28;20671;-67
2021/05/27 05:19:28;;;;;;;;;;;21.20;96.60;;;;;;5049316;28;20305;-68
2021/05/27 05:21:56;;;;;;;;;;;21.30;94.90;;;;;;5047088;28;19935;-69
2021/05/27 05:24:22;;;;;;;;;;;21.40;97.00;;;;;;5027513;28;19929;-68
2021/05/27 05:26:48;;;;;;;;;;;21.60;99.90;;;;;;5038342;28;19936;-68
2021/05/27 05:29:14;;;;;;;;;;;21.70;95.70;;;;;;5042569;28;19940;-68
2021/05/27 05:31:40;;;;;;;;;;;21.80;96.30;;;;;;5045501;28;20491;-67
2021/05/27 05:34:06;;;;;;;;;;;21.60;86.60;;;;;;5039884;28;20397;-67
2021/05/27 05:36:33;;;;;;;;;;;21.50;84.80;;;;;;5047845;28;19974;-68
2021/05/27 05:38:59;;;;;;;;;;;21.50;93.50;;;;;;5049768;28;19929;-69
2021/05/27 05:41:25;;;;;;;;;;;21.70;94.80;;;;;;5050836;28;19935;-68
2021/05/27 05:43:51;;;;;;;;;;;21.60;81.90;;;;;;5046890;28;19941;-68
2021/05/27 05:46:17;;;;;;;;;;;21.50;76.60;;;;;;5046191;28;19955;-67
2021/05/27 05:48:43;;;;;;;;;;;21.30;76.50;;;;;;5045552;28;20282;-68
2021/05/27 05:51:09;;;;;;;;;;;21.20;70.70;;;;;;5046954;28;19929;-69
2021/05/27 05:53:36;;;;;;;;;;;20.90;67.30;;;;;;5047872;28;19935;-68
2021/05/27 05:56:03;;;;;;;;;;;20.80;68.70;;;;;;5047814;28;20304;-67
2021/05/27 05:58:29;;;;;;;;;;;20.50;64.60;;;;;;5034199;28;19933;-66
2021/05/27 06:00:55;;;;;;;;;;;20.40;65.00;;;;;;5032367;28;19933;-67
2021/05/27 06:03:21;;;;;;;;;;;20.30;63.50;;;;;;5043777;28;19928;-68
2021/05/27 06:05:47;;;;;;;;;;;20.30;64.30;;;;;;5048233;28;19928;-67
2021/05/27 06:08:13;;;;;;;;;;;20.30;63.40;;;;;;5019104;28;19929;-68
2021/05/27 06:10:40;;;;;;;;;;;20.40;62.40;;;;;;5047502;28;19936;-69
2021/05/27 06:13:06;;;;;;;;;;;20.50;62.30;;;;;;5045131;28;19928;-67
2021/05/27 06:15:32;;;;;;;;;;;20.50;62.60;;;;;;5048926;28;19928;-67
2021/05/27 06:17:58;;;;;;;;;;;20.50;62.40;;;;;;5049567;28;19929;-68
2021/05/27 06:20:24;;;;;;;;;;;20.50;61.90;;;;;;5025869;28;19929;-67
2021/05/27 06:22:50;;;;;;;;;;;20.50;61.10;;;;;;5031850;28;20002;-68
2021/05/27 06:25:16;;;;;;;;;;;20.60;60.80;;;;;;5037118;28;19928;-68
2021/05/27 06:27:43;;;;;;;;;;;20.60;60.60;;;;;;5039051;28;20940;-69
2021/05/27 06:30:09;;;;;;;;;;;20.60;60.20;;;;;;5048749;28;19932;-68
2021/05/27 06:32:36;;;;;;;;;;;20.60;60.20;;;;;;5045900;28;19936;-68
2021/05/27 06:35:02;;;;;;;;;;;20.60;59.90;;;;;;5046698;28;20538;-68
2021/05/27 06:37:28;;;;;;;;;;;20.60;59.80;;;;;;5045844;28;19932;-69
2021/05/27 06:39:54;;;;;;;;;;;20.50;59.80;;;;;;5046403;28;20625;-66
2021/05/27 06:42:20;;;;;;;;;;;20.50;59.60;;;;;;5049792;28;19929;-67
2021/05/27 06:44:47;;;;;;;;;;;20.50;59.60;;;;;;5048251;28;19929;-66
2021/05/27 06:47:14;;;;;;;;;;;20.50;59.30;;;;;;5047856;28;19929;-68
2021/05/27 06:49:40;;;;;;;;;;;20.50;59.60;;;;;;5044740;28;20385;-68
2021/05/27 06:52:06;;;;;;;;;;;20.50;59.50;;;;;;5049864;28;19934;-69
2021/05/27 06:54:32;;;;;;;;;;;20.50;59.40;;;;;;5048458;28;20325;-67
2021/05/27 06:56:58;;;;;;;;;;;20.50;59.30;;;;;;5049426;28;19935;-68
2021/05/27 06:59:24;;;;;;;;;;;20.50;59.20;;;;;;5043611;28;19932;-67
2021/05/27 07:01:51;;;;;;;;;;;20.50;59.20;;;;;;5024260;28;19929;-67
2021/05/27 07:04:17;;;;;;;;;;;20.50;58.80;;;;;;5032212;28;19928;-68
2021/05/27 07:06:43;;;;;;;;;;;20.40;59.10;;;;;;5043028;28;19929;-68
2021/05/27 07:09:09;;;;;;;;;;;20.40;59.00;;;;;;5036450;28;19943;-69
2021/05/27 07:11:35;;;;;;;;;;;20.40;59.10;;;;;;5040740;28;19928;-68
2021/05/27 07:14:01;;;;;;;;;;;20.40;59.00;;;;;;5020488;28;19990;-67
2021/05/27 07:16:27;;;;;;;;;;;20.40;58.80;;;;;;5045613;28;19936;-67
2021/05/27 07:18:54;;;;;;;;;;;20.40;58.80;;;;;;5041971;28;19935;-68
2021/05/27 07:21:20;;;;;;;;;;;20.40;58.70;;;;;;5028027;28;19928;-67
2021/05/27 07:23:46;;;;;;;;;;;20.40;58.60;;;;;;5029661;28;20547;-68
2021/05/27 07:26:12;;;;;;;;;;;20.50;58.70;;;;;;5039193;28;19978;-68
2021/05/27 07:28:38;;;;;;;;;;;20.40;58.60;;;;;;5039875;28;19941;-67
2021/05/27 07:31:06;;;;;;;;;;;20.40;58.70;;;;;;5041623;28;19929;-68
2021/05/27 07:33:32;;;;;;;;;;;20.40;58.60;;;;;;5044345;28;20312;-68
2021/05/27 07:35:59;;;;;;;;;;;20.40;58.60;;;;;;5016694;28;20344;-66
2021/05/27 07:38:25;;;;;;;;;;;20.40;58.70;;;;;;5040293;28;20294;-69
2021/05/27 07:40:51;;;;;;;;;;;20.30;58.60;;;;;;5043185;28;20519;-68
2021/05/27 07:43:17;;;;;;;;;;;20.30;58.50;;;;;;5042125;28;20006;-67
2021/05/27 07:45:43;;;;;;;;;;;20.30;58.50;;;;;;5045867;28;19929;-67
2021/05/27 07:48:09;;;;;;;;;;;20.30;58.50;;;;;;5043430;28;19936;-68
2021/05/27 07:50:35;;;;;;;;;;;20.30;58.50;;;;;;5039146;28;19951;-69
2021/05/27 07:53:02;;;;;;;;;;;20.30;58.40;;;;;;5045426;28;20069;-68
2021/05/27 07:55:28;;;;;;;;;;;20.30;58.60;;;;;;5045229;28;19932;-67
2021/05/27 07:57:54;;;;;;;;;;;20.30;58.50;;;;;;5045142;28;19929;-67
2021/05/27 08:00:20;;;;;;;;;;;20.30;58.60;;;;;;5039696;28;19928;-67
2021/05/27 08:02:46;;;;;;;;;;;20.30;58.50;;;;;;5042553;28;19935;-68
2021/05/27 08:05:13;;;;;;;;;;;20.30;58.40;;;;;;5044806;28;19975;-69
2021/05/27 08:07:39;;;;;;;;;;;20.30;58.30;;;;;;5044289;28;20274;-68
2021/05/27 08:10:06;;;;;;;;;;;20.30;58.10;;;;;;5024635;28;20496;-67
2021/05/27 08:12:32;;;;;;;;;;;20.40;58.00;;;;;;5024231;28;19933;-68
2021/05/27 08:14:58;;;;;;;;;;;20.40;58.10;;;;;;5045814;28;20398;-67
2021/05/27 08:17:24;;;;;;;;;;;20.40;58.00;;;;;;5042496;28;19941;-69
2021/05/27 08:19:50;;;;;;;;;;;20.40;58.10;;;;;;5012857;28;19936;-68
2021/05/27 08:22:16;;;;;;;;;;;20.30;58.00;;;;;;5035765;28;19929;-68
2021/05/27 08:24:42;;;;;;;;;;;20.30;58.10;;;;;;5039681;28;19928;-68
2021/05/27 08:27:09;;;;;;;;;;;20.30;58.00;;;;;;5045823;28;19928;-67
2021/05/27 08:29:35;;;;;;;;;;;20.30;58.00;;;;;;5043637;28;20575;-69
2021/05/27 08:32:01;;;;;;;;;;;20.30;58.10;;;;;;5034217;28;20420;-69
2021/05/27 08:34:27;;;;;;;;;;;20.30;58.10;;;;;;5039337;28;19929;-68
2021/05/27 08:36:53;;;;;;;;;;;20.30;58.10;;;;;;5038224;28;19933;-70
2021/05/27 08:39:19;;;;;;;;;;;20.30;58.20;;;;;;5039474;28;19933;-68
2021/05/27 08:41:45;;;;;;;;;;;20.30;58.20;;;;;;5045133;28;19944;-67
2021/05/27 08:44:12;;;;;;;;;;;20.30;58.10;;;;;;5043169;28;20814;-68
2021/05/27 08:46:38;;;;;;;;;;;20.30;58.80;;;;;;5033254;28;19936;-67
2021/05/27 08:49:04;;;;;;;;;;;20.30;57.80;;;;;;5024762;28;19929;-68
2021/05/27 08:51:34;;;;;;;;;;;20.40;57.70;;;;;;5002834;28;19932;-69
2021/05/27 08:54:00;;;;;;;;;;;20.40;57.70;;;;;;5036959;28;19937;-68
2021/05/27 08:56:26;;;;;;;;;;;20.50;57.60;;;;;;5037682;28;19929;-68
2021/05/27 08:58:52;;;;;;;;;;;20.50;57.50;;;;;;5039328;28;19932;-68
2021/05/27 09:01:23;;;;;;;;;;;20.60;57.70;;;;;;5042281;28;19929;-68
2021/05/27 09:03:49;;;;;;;;;;;20.60;57.60;;;;;;5038935;28;19933;-68
2021/05/27 09:06:15;;;;;;;;;;;20.60;57.60;;;;;;5044833;28;20411;-68
2021/05/27 09:08:41;;;;;;;;;;;20.70;57.30;;;;;;5035525;28;20402;-68
2021/05/27 09:11:07;;;;;;;;;;;20.70;57.40;;;;;;5041732;28;19989;-67
2021/05/27 09:13:33;;;;;;;;;;;20.70;57.20;;;;;;5043307;28;19928;-68
2021/05/27 09:16:06;;;;;;;;;;;20.70;57.30;;;;;;5043911;28;20313;-68
2021/05/27 09:18:34;;;;;;;;;;;20.70;57.20;;;;;;5032938;28;19936;-67
2021/05/27 09:21:00;;;;;;;;;;;20.70;57.20;;;;;;5037792;28;19933;-70
2021/05/27 09:23:26;;;;;;;;;;;20.70;57.40;;;;;;5045202;28;19939;-68
2021/05/27 09:25:53;;;;;;;;;;;20.70;57.40;;;;;;5039447;28;20405;-68
2021/05/27 09:28:20;;;;;;;;;;;20.60;57.40;;;;;;5042240;28;19933;-71
2021/05/27 09:30:46;;;;;;;;;;;20.60;57.30;;;;;;5023335;28;20012;-67
2021/05/27 09:33:12;;;;;;;;;;;20.60;57.30;;;;;;5031053;28;19929;-68
2021/05/27 09:35:39;;;;;;;;;;;20.60;57.40;;;;;;5045363;28;19932;-67
2021/05/27 09:38:05;;;;;;;;;;;20.60;57.30;;;;;;5044119;28;19928;-68
2021/05/27 09:40:32;;;;;;;;;;;20.60;57.30;;;;;;5040484;28;20329;-69
2021/05/27 09:42:59;;;;;;;;;;;20.60;57.40;;;;;;5042299;28;19925;-68
2021/05/27 09:45:25;;;;;;;;;;;20.60;57.40;;;;;;5035250;28;19937;-68
2021/05/27 09:47:51;;;;;;;;;;;20.60;57.50;;;;;;5047771;28;19929;-68
2021/05/27 09:50:18;;;;;;;;;;;20.50;57.40;;;;;;5038459;28;19929;-69
2021/05/27 09:52:45;;;;;;;;;;;20.60;57.40;;;;;;5037854;28;19995;-68
2021/05/27 09:55:12;;;;;;;;;;;20.60;57.30;;;;;;5044083;28;19987;-69
2021/05/27 09:57:39;;;;;;;;;;;20.60;57.30;;;;;;5039316;28;20355;-67
2021/05/27 10:00:06;;;;;;;;;;;20.60;57.30;;;;;;5038459;28;20346;-67
2021/05/27 10:02:34;;;;;;;;;;;20.60;57.20;;;;;;5012497;28;19932;-69
2021/05/27 10:05:04;;;;;;;;;;;20.60;57.50;;;;;;5042168;28;19928;-67
2021/05/27 10:07:33;;;;;;;;;;;20.50;57.50;;;;;;5039213;28;19933;-67
2021/05/27 10:10:00;;;;;;;;;;;20.50;57.50;;;;;;5040127;28;19932;-68
2021/05/27 10:12:26;;;;;;;;;;;20.50;57.50;;;;;;5038692;28;20629;-66
2021/05/27 10:14:52;;;;;;;;;;;20.50;57.70;;;;;;5042986;28;20286;-67
2021/05/27 10:17:18;;;;;;;;;;;20.50;57.90;;;;;;5020577;28;19937;-68
2021/05/27 10:19:44;;;;;;;;;;;20.50;57.90;;;;;;5034270;28;19982;-68
2021/05/27 10:22:10;;;;;;;;;;;20.50;57.90;;;;;;5043683;28;19935;-68
2021/05/27 10:24:36;;;;;;;;;;;20.50;57.90;;;;;;5046269;28;20286;-68
2021/05/27 10:27:03;;;;;;;;;;;20.40;58.10;;;;;;5045927;28;19936;-69
2021/05/27 10:29:30;;;;;;;;;;;20.40;58.20;;;;;;5043134;28;19929;-68
2021/05/27 10:31:56;;;;;;;;;;;20.40;58.00;;;;;;5046901;28;20556;-69
2021/05/27 10:34:45;;;;;;;;;;;20.50;58.10;;;;;;5032199;28;19968;-68
2021/05/27 10:37:11;;;;;;;;;;;20.50;58.10;;;;;;5028010;28;19936;-69
2021/05/27 10:39:37;;;;;;;;;;;20.50;58.20;;;;;;5041421;28;20358;-68
2021/05/27 10:42:04;;;;;;;;;;;20.50;58.20;;;;;;5043752;28;20569;-68
2021/05/27 10:44:30;;;;;;;;;;;20.50;58.00;;;;;;5044777;28;19968;-68
2021/05/27 10:47:05;;;;;;;;;;;20.50;57.90;;;;;;5043950;28;20006;-68
2021/05/27 10:49:49;;;;;;;;;;;20.50;57.70;;;;;;5036944;28;19928;-69
2021/05/27 10:52:34;;;;;;;;;;;20.50;57.80;;;;;;5042113;28;19972;-68
2021/05/27 10:55:01;;;;;;;;;;;20.60;57.80;;;;;;5041454;28;19928;-68
2021/05/27 10:57:44;;;;;;;;;;;20.60;57.60;;;;;;5046122;28;20292;-66
2021/05/27 11:00:33;;;;;;;;;;;20.60;57.50;;;;;;5014592;28;19937;-68
2021/05/27 11:03:14;;;;;;;;;;;20.60;57.30;;;;;;5041126;28;19932;-67
2021/05/27 11:05:40;;;;;;;;;;;20.60;57.20;;;;;;5039286;28;19929;-69
2021/05/27 11:08:16;;;;;;;;;;;20.70;57.20;;;;;;5040160;28;19938;-68
2021/05/27 11:10:42;;;;;;;;;;;20.60;57.10;;;;;;5044717;28;19998;-68
2021/05/27 11:13:08;;;;;;;;;;;20.60;61.50;;;;;;5030529;28;21025;-68
2021/05/27 11:15:35;;;;;;;;;;;20.70;74.20;;;;;;5045391;28;20465;-67
2021/05/27 11:18:07;;;;;;;;;;;20.80;74.30;;;;;;5043595;28;20366;-68
2021/05/27 11:20:34;;;;;;;;;;;21.20;67.50;;;;;;5011703;28;19928;-69
2021/05/27 11:23:10;;;;;;;;;;;21.50;59.90;;;;;;5009559;28;20465;-68
2021/05/27 11:25:37;;;;;;;;;;;21.50;56.40;;;;;;5035952;28;20392;-68
2021/05/27 11:28:36;;;;;;;;;;;21.40;55.00;;;;;;5032578;28;20408;-68
2021/05/27 11:31:03;;;;;;;;;;;21.10;54.40;;;;;;4951839;28;19944;-67
2021/05/27 11:33:31;;;;;;;;;;;20.90;61.40;;;;;;4925455;28;19941;-68
2021/05/27 11:35:59;;;;;;;;;;;21.10;59.60;;;;;;4988908;28;19925;-69
2021/05/27 11:38:25;;;;;;;;;;;21.30;54.80;;;;;;5034274;28;19951;-71
2021/05/27 11:40:52;;;;;;;;;;;21.30;54.30;;;;;;5044029;28;19935;-69
2021/05/27 11:43:18;;;;;;;;;;;21.30;53.90;;;;;;5016018;28;20405;-69
2021/05/27 11:45:45;;;;;;;;;;;21.30;53.80;;;;;;5029093;28;19981;-69
2021/05/27 11:48:14;;;;;;;;;;;21.30;53.90;;;;;;5027683;28;19932;-68
2021/05/27 11:50:40;;;;;;;;;;;21.20;55.40;;;;;;5020526;28;20066;-67
2021/05/27 11:53:06;;;;;;;;;;;21.20;56.20;;;;;;5040488;28;19937;-67
2021/05/27 11:55:32;;;;;;;;;;;21.10;56.10;;;;;;4982283;28;19960;-67
2021/05/27 11:57:58;;;;;;;;;;;21.00;56.10;;;;;;5037441;28;19929;-68
2021/05/27 12:00:24;;;;;;;;;;;20.90;56.60;;;;;;5035614;28;19935;-69
2021/05/27 12:02:50;;;;;;;;;;;20.90;56.90;;;;;;5038595;28;20085;-67
2021/05/27 12:05:24;;;;;;;;;;;20.90;57.20;;;;;;5025179;28;19978;-67
2021/05/27 12:07:57;;;;;;;;;;;20.80;57.40;;;;;;5027953;28;19928;-70
2021/05/27 12:10:23;;;;;;;;;;;20.80;57.40;;;;;;5038402;28;20017;-67
2021/05/27 12:12:49;;;;;;;;;;;20.80;57.60;;;;;;5041717;28;19929;-68
2021/05/27 12:15:16;;;;;;;;;;;20.80;57.60;;;;;;5041884;28;19932;-69
2021/05/27 12:17:45;;;;;;;;;;;20.80;57.80;;;;;;5044286;28;21378;-68
2021/05/27 12:20:13;;;;;;;;;;;20.70;57.80;;;;;;5036060;28;19928;-69
2021/05/27 12:22:46;;;;;;;;;;;20.70;57.70;;;;;;5028995;28;20051;-68
2021/05/27 12:25:12;;;;;;;;;;;20.70;57.90;;;;;;5036677;28;19931;-69
2021/05/27 12:27:39;;;;;;;;;;;20.70;57.80;;;;;;5034605;28;19928;-69
2021/05/27 12:30:06;;;;;;;;;;;20.70;58.00;;;;;;5035544;28;19933;-67
2021/05/27 12:32:34;;;;;;;;;;;20.40;58.20;;;;;;5029678;28;19925;-69
2021/05/27 12:35:00;;;;;;;;;;;20.10;58.50;;;;;;5043744;28;19924;-68
2021/05/27 12:37:36;;;;;;;;;;;19.70;58.80;;;;;;5037187;28;19933;-69
2021/05/27 12:40:04;;;;;;;;;;;19.50;60.60;;;;;;5035332;28;19928;-67
2021/05/27 12:42:34;;;;;;;;;;;19.40;59.90;;;;;;5037738;28;19940;-71
2021/05/27 12:45:00;;;;;;;;;;;19.30;60.70;;;;;;5040769;28;19929;-67
2021/05/27 12:47:26;;;;;;;;;;;19.20;60.70;;;;;;5037550;28;19939;-69
2021/05/27 12:49:53;;;;;;;;;;;19.20;61.40;;;;;;5033352;28;20292;-69
2021/05/27 12:52:37;;;;;;;;;;;19.20;61.50;;;;;;5039429;28;20181;-68
2021/05/27 12:55:05;;;;;;;;;;;19.10;60.80;;;;;;5003510;28;19936;-71
2021/05/27 12:57:31;;;;;;;;;;;19.10;60.40;;;;;;5043825;28;20351;-70
2021/05/27 12:59:57;;;;;;;;;;;19.10;61.00;;;;;;5038008;28;19933;-68
2021/05/27 13:02:24;;;;;;;;;;;19.10;61.60;;;;;;5037355;28;19937;-69
2021/05/27 13:04:50;;;;;;;;;;;19.10;61.70;;;;;;5037728;28;20790;-67
2021/05/27 13:07:17;;;;;;;;;;;19.20;61.10;;;;;;5044139;28;19944;-67
2021/05/27 13:09:44;;;;;;;;;;;19.40;61.00;;;;;;5041463;28;21357;-69
2021/05/27 13:12:11;;;;;;;;;;;19.50;60.40;;;;;;5042385;28;20023;-69
2021/05/27 13:14:37;;;;;;;;;;;19.70;60.20;;;;;;5042941;28;20371;-68
2021/05/27 13:17:09;;;;;;;;;;;19.70;58.80;;;;;;5049432;28;20316;-67
2021/05/27 13:19:37;;;;;;;;;;;19.70;59.60;;;;;;5017164;28;19928;-68
2021/05/27 13:22:04;;;;;;;;;;;19.90;59.70;;;;;;5036976;28;19929;-67
2021/05/27 13:24:30;;;;;;;;;;;19.70;59.60;;;;;;5048355;28;19932;-67
2021/05/27 13:27:01;;;;;;;;;;;19.80;59.50;;;;;;5048585;28;19937;-68
2021/05/27 13:29:29;;;;;;;;;;;19.90;59.00;;;;;;5043213;28;21127;-68
2021/05/27 13:31:55;;;;;;;;;;;19.90;59.20;;;;;;5044107;28;20447;-69
2021/05/27 13:34:21;;;;;;;;;;;20.00;58.70;;;;;;5045718;28;19936;-69
2021/05/27 13:36:47;;;;;;;;;;;20.10;59.40;;;;;;5045807;28;19929;-69
2021/05/27 13:39:14;;;;;;;;;;;20.20;58.40;;;;;;5042011;28;19937;-68
2021/05/27 13:41:40;;;;;;;;;;;20.00;57.90;;;;;;5046281;28;19932;-68
2021/05/27 13:44:06;;;;;;;;;;;19.90;58.30;;;;;;5046504;28;19925;-68
2021/05/27 13:46:33;;;;;;;;;;;19.90;59.00;;;;;;5046805;28;19924;-69
2021/05/27 13:48:59;;;;;;;;;;;19.80;58.80;;;;;;5041251;28;19939;-68
2021/05/27 13:51:25;;;;;;;;;;;19.90;58.80;;;;;;5046912;28;19925;-68
2021/05/27 13:53:52;;;;;;;;;;;20.10;58.30;;;;;;5044551;28;19936;-68
2021/05/27 13:56:21;;;;;;;;;;;20.10;58.30;;;;;;5046224;28;20489;-68
2021/05/27 13:58:47;;;;;;;;;;;20.20;58.20;;;;;;5045448;28;20431;-67
2021/05/27 14:01:13;;;;;;;;;;;20.20;58.20;;;;;;5045325;28;19983;-69
2021/05/27 14:03:42;;;;;;;;;;;20.20;57.70;;;;;;5029544;28;19929;-69
2021/05/27 14:06:08;;;;;;;;;;;20.30;57.60;;;;;;5043010;28;19935;-67
2021/05/27 14:08:34;;;;;;;;;;;20.20;57.90;;;;;;5040211;28;20000;-69
2021/05/27 14:11:00;;;;;;;;;;;20.20;58.00;;;;;;5043489;28;19929;-68
2021/05/27 14:13:26;;;;;;;;;;;20.30;57.80;;;;;;5047238;28;19929;-69
2021/05/27 14:15:52;;;;;;;;;;;20.10;57.90;;;;;;5035879;28;20411;-67
2021/05/27 14:18:18;;;;;;;;;;;20.00;58.10;;;;;;5046056;28;19928;-69
2021/05/27 14:20:45;;;;;;;;;;;20.10;58.10;;;;;;5035942;28;19929;-69
2021/05/27 14:23:11;;;;;;;;;;;20.20;59.20;;;;;;5042488;28;19928;-68